createdAt,value
2022-10-28T00:01:25.811Z,5.23
2022-10-28T00:03:57.273Z,5.50
2022-10-28T00:06:28.731Z,5.27
2022-10-28T00:08:55.834Z,5.90
2022-10-28T00:11:25.508Z,5.50
2022-10-28T00:13:56.812Z,5.30
2022-10-28T00:16:28.305Z,5.20
2022-10-28T00:18:55.248Z,5.17
2022-10-28T00:21:24.608Z,4.93
2022-10-28T00:23:51.242Z,5.90
2022-10-28T00:26:22.797Z,5.77
2022-10-28T00:28:51.221Z,5.73
2022-10-28T00:31:20.979Z,5.47
2022-10-28T00:33:47.724Z,5.87
2022-10-28T00:36:17.041Z,5.90
2022-10-28T00:38:44.977Z,6.17
2022-10-28T00:41:13.500Z,6.00
2022-10-28T00:43:42.866Z,6.93
2022-10-28T00:46:25.583Z,7.00
2022-10-28T00:48:59.633Z,6.53
2022-10-28T00:51:26.599Z,5.23
2022-10-28T00:53:54.271Z,5.67
2022-10-28T00:56:21.109Z,5.73
2022-10-28T00:58:48.691Z,5.60
2022-10-28T01:01:15.138Z,5.93
2022-10-28T01:03:41.585Z,6.17
2022-10-28T01:06:08.570Z,6.30
2022-10-28T01:08:35.041Z,6.30
2022-10-28T01:11:16.568Z,6.83
2022-10-28T01:14:00.208Z,6.70
2022-10-28T01:16:34.432Z,6.00
2022-10-28T01:19:05.936Z,5.70
2022-10-28T01:21:54.391Z,6.73
2022-10-28T01:24:52.825Z,5.83
2022-10-28T01:27:38.115Z,7.40
2022-10-28T01:30:14.832Z,7.50
2022-10-28T01:33:14.957Z,7.27
2022-10-28T01:35:52.711Z,7.97
2022-10-28T01:38:33.307Z,8.03
2022-10-28T01:41:16.591Z,5.83
2022-10-28T01:44:21.675Z,7.00
2022-10-28T01:46:56.392Z,6.97
2022-10-28T01:49:26.240Z,6.90
2022-10-28T01:51:59.713Z,6.07
2022-10-28T01:54:28.094Z,5.40
2022-10-28T01:56:56.681Z,6.90
2022-10-28T01:59:25.756Z,6.97
2022-10-28T02:01:52.321Z,7.60
2022-10-28T02:04:18.831Z,7.10
2022-10-28T02:06:48.554Z,7.57
2022-10-28T02:09:38.066Z,8.40
2022-10-28T02:16:05.166Z,7.67
2022-10-28T02:18:43.387Z,6.30
2022-10-28T02:21:21.545Z,6.87
2022-10-28T02:24:27.365Z,7.03
2022-10-28T02:27:04.977Z,7.93
2022-10-28T02:29:37.541Z,6.00
2022-10-28T02:32:16.117Z,6.57
2022-10-28T02:34:46.565Z,6.60
2022-10-28T02:37:22.620Z,7.67
2022-10-28T02:39:52.435Z,5.93
2022-10-28T02:42:24.126Z,6.77
2022-10-28T02:44:56.404Z,7.17
2022-10-28T02:47:26.888Z,6.80
2022-10-28T02:49:57.098Z,7.60
2022-10-28T02:52:25.725Z,8.30
2022-10-28T02:54:59.799Z,7.87
2022-10-28T02:57:28.660Z,7.27
2022-10-28T02:59:58.042Z,9.07
2022-10-28T03:02:25.058Z,7.73
2022-10-28T03:04:51.581Z,8.43
2022-10-28T03:07:18.325Z,8.47
2022-10-28T03:09:44.752Z,7.40
2022-10-28T03:12:11.418Z,7.87
2022-10-28T03:14:38.541Z,7.33
2022-10-28T03:17:04.996Z,7.20
2022-10-28T03:19:31.405Z,8.33
2022-10-28T03:21:57.858Z,7.57
2022-10-28T03:24:24.350Z,7.30
2022-10-28T03:26:50.922Z,7.83
2022-10-28T03:29:17.425Z,7.90
2022-10-28T03:31:43.924Z,7.87
2022-10-28T03:34:10.333Z,7.40
2022-10-28T03:36:36.772Z,6.47
2022-10-28T03:39:03.314Z,7.87
2022-10-28T03:41:29.943Z,7.87
2022-10-28T03:43:56.670Z,7.27
2022-10-28T03:46:23.442Z,7.60
2022-10-28T03:48:50.003Z,7.97
2022-10-28T03:51:16.421Z,8.00
2022-10-28T03:53:42.909Z,7.93
2022-10-28T03:56:09.534Z,8.33
2022-10-28T03:58:38.784Z,8.30
2022-10-28T04:01:08.451Z,8.63
2022-10-28T04:03:35.115Z,7.83
2022-10-28T04:06:01.493Z,6.97
2022-10-28T04:08:28.122Z,6.90
2022-10-28T04:10:54.687Z,7.33
2022-10-28T04:13:21.327Z,8.30
2022-10-28T04:15:47.730Z,8.13
2022-10-28T04:18:14.160Z,7.90
2022-10-28T04:20:40.760Z,7.47
2022-10-28T04:23:07.612Z,6.63
2022-10-28T04:25:34.395Z,7.10
2022-10-28T04:28:01.033Z,7.97
2022-10-28T04:30:27.870Z,7.23
2022-10-28T04:32:56.226Z,8.80
2022-10-28T04:35:23.681Z,7.77
2022-10-28T04:37:50.266Z,8.73
2022-10-28T04:40:18.853Z,8.10
2022-10-28T04:42:49.502Z,8.77
2022-10-28T04:45:17.753Z,8.77
2022-10-28T04:47:44.534Z,9.67
2022-10-28T04:50:11.282Z,9.27
2022-10-28T04:52:40.208Z,9.30
2022-10-28T04:55:08.389Z,9.43
2022-10-28T04:57:34.917Z,8.27
2022-10-28T05:00:01.681Z,7.47
2022-10-28T05:02:29.335Z,7.83
2022-10-28T05:05:11.529Z,7.90
2022-10-28T05:07:45.377Z,8.27
2022-10-28T05:10:20.490Z,8.23
2022-10-28T05:13:01.537Z,8.20
2022-10-28T05:15:28.575Z,8.07
2022-10-28T05:17:56.198Z,7.70
2022-10-28T05:20:31.658Z,7.93
2022-10-28T05:23:02.593Z,7.47
2022-10-28T05:25:30.404Z,8.37
2022-10-28T05:34:13.704Z,8.30
2022-10-28T05:37:16.408Z,8.40
2022-10-28T05:40:10.177Z,8.53
2022-10-28T05:42:47.822Z,8.33
2022-10-28T05:48:29.033Z,7.83
2022-10-28T05:51:01.609Z,8.37
2022-10-28T05:56:32.163Z,9.63
2022-10-28T06:02:28.548Z,8.20
2022-10-28T06:04:59.586Z,8.97
2022-10-28T06:07:26.182Z,7.97
2022-10-28T06:09:53.227Z,8.90
2022-10-28T06:12:18.174Z,7.87
2022-10-28T06:14:50.651Z,7.97
2022-10-28T06:17:17.735Z,8.63
2022-10-28T06:19:48.427Z,8.33
2022-10-28T06:22:36.164Z,9.47
2022-10-28T06:25:13.889Z,8.70
2022-10-28T06:28:12.158Z,8.10
2022-10-28T06:31:14.949Z,8.73
2022-10-28T06:34:02.306Z,8.73
2022-10-28T06:36:31.721Z,8.40
2022-10-28T06:39:05.156Z,7.70
2022-10-28T06:41:54.761Z,7.70
2022-10-28T06:44:25.139Z,8.10
2022-10-28T06:46:55.605Z,9.17
2022-10-28T06:49:25.642Z,8.27
2022-10-28T06:51:54.219Z,7.77
2022-10-28T06:54:22.934Z,8.00
2022-10-28T06:57:01.670Z,7.60
2022-10-28T06:59:37.323Z,7.50
2022-10-28T07:02:04.755Z,8.40
2022-10-28T07:04:33.006Z,8.87
2022-10-28T07:07:06.522Z,8.27
2022-10-28T07:09:40.342Z,8.13
2022-10-28T07:12:38.980Z,8.43
2022-10-28T07:15:14.124Z,9.00
2022-10-28T07:17:49.608Z,8.40
2022-10-28T07:20:18.995Z,9.43
2022-10-28T07:22:48.192Z,9.63
2022-10-28T07:25:15.022Z,9.63
2022-10-28T07:30:38.759Z,7.87
2022-10-28T07:33:19.920Z,8.27
2022-10-28T07:35:53.419Z,7.97
2022-10-28T07:41:13.235Z,9.87
2022-10-28T07:43:51.542Z,8.97
2022-10-28T07:49:28.229Z,8.70
2022-10-28T07:59:49.842Z,7.67
2022-10-28T08:05:34.275Z,8.17
2022-10-28T08:08:10.010Z,7.70
2022-10-28T08:13:43.644Z,7.40
2022-10-28T08:16:26.697Z,7.73
2022-10-28T08:19:12.301Z,6.70
2022-10-28T08:21:44.673Z,6.73
2022-10-28T08:24:34.892Z,6.87
2022-10-28T08:27:01.956Z,6.33
2022-10-28T08:32:27.551Z,6.60
2022-10-28T08:37:56.385Z,6.23
2022-10-28T08:40:33.077Z,5.80
2022-10-28T08:43:30.377Z,5.17
2022-10-28T08:47:15.574Z,5.23
2022-10-28T08:52:48.838Z,4.87
2022-10-28T08:55:39.647Z,5.27
2022-10-28T08:58:32.742Z,4.60
2022-10-28T09:01:01.628Z,5.60
2022-10-28T09:03:39.247Z,4.97
2022-10-28T09:06:10.998Z,4.93
2022-10-28T09:08:41.548Z,5.03
2022-10-28T09:11:26.272Z,5.20
2022-10-28T09:14:09.687Z,4.83
2022-10-28T09:16:49.614Z,4.87
2022-10-28T09:19:38.684Z,4.47
2022-10-28T09:22:10.985Z,3.93
2022-10-28T09:25:05.227Z,4.80
2022-10-28T09:27:43.256Z,3.90
2022-10-28T09:30:27.142Z,4.10
2022-10-28T09:33:06.845Z,3.60
2022-10-28T09:35:43.217Z,4.03
2022-10-28T09:38:24.164Z,4.67
2022-10-28T09:41:11.921Z,4.10
2022-10-28T09:46:40.884Z,3.70
2022-10-28T09:49:39.740Z,3.80
2022-10-28T09:52:18.920Z,4.17
2022-10-28T09:54:52.916Z,3.60
2022-10-28T09:57:27.370Z,3.70
2022-10-28T09:59:55.634Z,4.40
2022-10-28T10:02:29.718Z,3.60
2022-10-28T10:04:57.105Z,3.43
2022-10-28T10:07:35.217Z,3.90
2022-10-28T10:10:09.137Z,3.50
2022-10-28T10:12:42.068Z,3.67
2022-10-28T10:15:18.216Z,3.60
2022-10-28T10:17:48.282Z,3.93
2022-10-28T10:20:23.369Z,4.33
2022-10-28T10:22:51.843Z,3.60
2022-10-28T10:25:18.873Z,3.40
2022-10-28T10:28:08.783Z,4.27
2022-10-28T10:30:46.796Z,4.20
2022-10-28T10:33:26.753Z,3.60
2022-10-28T10:36:18.446Z,4.67
2022-10-28T10:39:00.668Z,3.83
2022-10-28T10:41:40.635Z,3.83
2022-10-28T10:44:22.822Z,3.70
2022-10-28T10:47:05.980Z,3.93
2022-10-28T10:49:38.499Z,3.40
2022-10-28T10:52:10.980Z,4.13
2022-10-28T10:54:40.712Z,4.17
2022-10-28T10:57:21.330Z,3.23
2022-10-28T10:59:53.833Z,3.57
2022-10-28T11:02:30.928Z,4.00
2022-10-28T11:05:09.363Z,4.00
2022-10-28T11:07:45.671Z,4.17
2022-10-28T11:10:33.531Z,3.80
2022-10-28T11:13:09.289Z,3.43
2022-10-28T11:15:39.406Z,4.00
2022-10-28T11:18:08.917Z,4.03
2022-10-28T11:20:56.848Z,3.73
2022-10-28T11:23:35.870Z,4.47
2022-10-28T11:26:06.970Z,3.70
2022-10-28T11:29:01.423Z,3.83
2022-10-28T11:31:46.330Z,3.53
2022-10-28T11:34:26.820Z,3.47
2022-10-28T11:37:15.170Z,3.30
2022-10-28T11:40:18.630Z,3.73
2022-10-28T11:43:03.518Z,3.90
2022-10-28T11:46:05.368Z,4.23
2022-10-28T11:48:58.932Z,3.67
2022-10-28T11:51:51.445Z,3.67
2022-10-28T11:54:32.519Z,4.37
2022-10-28T11:57:04.096Z,3.40
2022-10-28T11:59:59.223Z,3.83
2022-10-28T12:02:53.342Z,3.93
2022-10-28T12:05:45.396Z,3.43
2022-10-28T12:08:43.930Z,3.27
2022-10-28T12:11:29.480Z,4.17
2022-10-28T12:14:18.624Z,4.27
2022-10-28T12:17:05.589Z,3.43
2022-10-28T12:19:43.159Z,3.73
2022-10-28T12:22:19.841Z,3.70
2022-10-28T12:24:50.054Z,3.70
2022-10-28T12:27:26.334Z,3.80
2022-10-28T12:29:56.333Z,3.60
2022-10-28T12:32:30.370Z,3.50
2022-10-28T12:35:12.080Z,3.80
2022-10-28T12:38:06.332Z,3.83
2022-10-28T12:40:39.850Z,4.07
2022-10-28T12:43:30.115Z,4.23
2022-10-28T12:45:57.159Z,3.97
2022-10-28T12:48:46.457Z,3.90
2022-10-28T12:51:40.401Z,3.67
2022-10-28T12:54:21.921Z,3.70
2022-10-28T12:56:56.580Z,4.53
2022-10-28T12:59:44.617Z,3.90
2022-10-28T13:02:20.122Z,3.80
2022-10-28T13:04:46.795Z,3.90
2022-10-28T13:07:34.322Z,4.73
2022-10-28T13:10:18.046Z,3.20
2022-10-28T13:13:08.083Z,3.87
2022-10-28T13:15:59.032Z,3.47
2022-10-28T13:18:38.973Z,3.90
2022-10-28T13:21:12.687Z,4.10
2022-10-28T13:24:12.548Z,4.07
2022-10-28T13:26:42.831Z,3.60
2022-10-28T13:29:20.761Z,4.10
2022-10-28T13:31:48.034Z,4.20
2022-10-28T13:34:16.848Z,4.13
2022-10-28T13:36:57.333Z,4.07
2022-10-28T13:39:31.689Z,4.33
2022-10-28T13:42:13.633Z,3.43
2022-10-28T13:44:53.028Z,4.80
2022-10-28T13:47:31.143Z,3.70
2022-10-28T13:50:07.577Z,3.60
2022-10-28T13:52:45.759Z,4.10
2022-10-28T13:55:43.825Z,4.17
2022-10-28T13:58:26.394Z,5.10
2022-10-28T14:00:55.908Z,4.83
2022-10-28T14:03:25.538Z,4.27
2022-10-28T14:05:57.814Z,4.70
2022-10-28T14:08:24.629Z,3.80
2022-10-28T14:11:22.566Z,4.07
2022-10-28T14:14:02.537Z,4.23
2022-10-28T14:16:37.264Z,5.17
2022-10-28T14:19:10.801Z,5.20
2022-10-28T14:21:45.581Z,4.10
2022-10-28T14:24:15.371Z,4.67
2022-10-28T14:27:41.174Z,4.33
2022-10-28T14:30:21.799Z,4.93
2022-10-28T14:32:49.567Z,4.57
2022-10-28T14:35:17.563Z,4.43
2022-10-28T14:38:17.671Z,4.30
2022-10-28T14:40:50.817Z,4.27
2022-10-28T14:43:59.566Z,4.50
2022-10-28T14:46:33.926Z,4.90
2022-10-28T14:49:04.309Z,4.40
2022-10-28T14:51:47.746Z,4.53
2022-10-28T14:54:40.902Z,4.60
2022-10-28T14:57:08.232Z,4.47
2022-10-28T14:59:43.271Z,5.00
2022-10-28T15:02:15.951Z,5.17
2022-10-28T15:04:45.058Z,4.97
2022-10-28T15:07:14.160Z,5.00
2022-10-28T15:09:43.352Z,4.30
2022-10-28T15:12:17.247Z,5.23
2022-10-28T15:14:52.248Z,5.07
2022-10-28T15:17:27.450Z,5.03
2022-10-28T15:19:56.186Z,5.07
2022-10-28T15:22:29.015Z,4.83
2022-10-28T15:25:06.535Z,4.50
2022-10-28T15:27:35.059Z,4.80
2022-10-28T15:30:03.221Z,4.47
2022-10-28T15:32:34.751Z,4.80
2022-10-28T15:35:30.567Z,4.70
2022-10-28T15:38:00.258Z,5.10
2022-10-28T15:40:34.402Z,5.10
2022-10-28T15:43:01.271Z,4.97
2022-10-28T15:45:33.822Z,5.70
2022-10-28T15:48:10.843Z,5.07
2022-10-28T15:50:37.459Z,5.50
2022-10-28T15:53:10.023Z,5.53
2022-10-28T15:58:35.769Z,6.10
2022-10-28T16:01:02.563Z,6.00
2022-10-28T16:03:40.920Z,5.10
2022-10-28T16:06:21.263Z,5.20
2022-10-28T16:08:48.193Z,5.93
2022-10-28T16:11:18.972Z,6.60
2022-10-28T16:13:48.105Z,5.83
2022-10-28T16:16:35.854Z,6.57
2022-10-28T16:19:10.586Z,6.57
2022-10-28T16:21:40.767Z,6.60
2022-10-28T16:24:09.206Z,6.50
2022-10-28T16:26:35.666Z,7.10
2022-10-28T16:29:02.181Z,6.40
2022-10-28T16:31:30.736Z,6.57
2022-10-28T16:33:58.380Z,6.43
2022-10-28T16:36:26.401Z,5.77
2022-10-28T16:39:01.692Z,6.40
2022-10-28T16:41:28.864Z,5.73
2022-10-28T16:43:56.156Z,6.50
2022-10-28T16:46:22.679Z,6.17
2022-10-28T16:48:49.072Z,5.57
2022-10-28T16:51:17.536Z,6.53
2022-10-28T16:53:47.496Z,6.27
2022-10-28T16:56:17.679Z,5.73
2022-10-28T16:58:44.168Z,5.73
2022-10-28T17:01:11.355Z,5.80
2022-10-28T17:03:37.878Z,6.10
2022-10-28T17:06:04.391Z,6.17
2022-10-28T17:09:00.735Z,6.20
2022-10-28T17:11:18.983Z,6.83
2022-10-28T17:13:45.494Z,6.17
2022-10-28T17:16:12.947Z,5.77
2022-10-28T17:18:39.479Z,6.37
2022-10-28T17:21:06.193Z,5.73
2022-10-28T17:23:32.602Z,6.27
2022-10-28T17:26:01.979Z,6.37
2022-10-28T17:28:28.927Z,5.97
2022-10-28T17:31:05.672Z,6.33
2022-10-28T17:33:32.311Z,6.53
2022-10-28T17:36:07.825Z,6.80
2022-10-28T17:38:34.499Z,6.97
2022-10-28T17:41:00.928Z,6.43
2022-10-28T17:43:28.354Z,6.60
2022-10-28T17:46:04.133Z,6.33
2022-10-28T17:48:30.579Z,5.77
2022-10-28T17:50:57.316Z,6.33
2022-10-28T17:53:24.127Z,5.43
2022-10-28T17:56:04.018Z,5.87
2022-10-28T17:58:30.722Z,6.27
2022-10-28T18:01:05.302Z,6.60
2022-10-28T18:03:38.155Z,7.03
2022-10-28T18:06:07.263Z,6.30
2022-10-28T18:08:34.946Z,6.33
2022-10-28T18:11:01.500Z,6.03
2022-10-28T18:13:32.592Z,6.13
2022-10-28T18:16:13.874Z,5.67
2022-10-28T18:18:42.540Z,5.53
2022-10-28T18:21:11.108Z,6.53
2022-10-28T18:23:37.856Z,6.13
2022-10-28T18:26:06.388Z,5.80
2022-10-28T18:28:34.850Z,7.63
2022-10-28T18:31:05.983Z,8.90
2022-10-28T18:33:33.488Z,7.10
2022-10-28T18:36:07.004Z,6.53
2022-10-28T18:38:33.966Z,6.80
2022-10-28T18:41:00.376Z,7.07
2022-10-28T18:43:26.924Z,6.90
2022-10-28T18:45:53.462Z,6.67
2022-10-28T18:48:19.917Z,6.20
2022-10-28T18:50:57.193Z,6.83
2022-10-28T18:53:23.905Z,6.17
2022-10-28T18:55:50.540Z,6.77
2022-10-28T18:58:17.381Z,6.27
2022-10-28T19:00:43.808Z,6.37
2022-10-28T19:03:21.303Z,7.03
2022-10-28T19:05:48.060Z,6.57
2022-10-28T19:08:14.839Z,6.47
2022-10-28T19:10:41.636Z,6.57
2022-10-28T19:13:08.059Z,7.00
2022-10-28T19:15:40.010Z,6.43
2022-10-28T19:18:06.496Z,6.00
2022-10-28T19:20:32.946Z,5.33
2022-10-28T19:22:59.777Z,5.97
2022-10-28T19:25:26.331Z,6.27
2022-10-28T19:27:52.721Z,6.30
2022-10-28T19:30:19.211Z,6.63
2022-10-28T19:32:45.637Z,6.47
2022-10-28T19:35:12.023Z,5.80
2022-10-28T19:37:38.675Z,6.37
2022-10-28T19:40:05.500Z,6.00
2022-10-28T19:42:31.920Z,5.87
2022-10-28T19:45:00.860Z,6.73
2022-10-28T19:47:27.713Z,5.93
2022-10-28T19:49:54.158Z,6.00
2022-10-28T19:52:20.562Z,6.23
2022-10-28T19:54:46.973Z,5.83
2022-10-28T19:59:44.828Z,5.67
2022-10-28T20:02:11.809Z,5.63
2022-10-28T20:04:39.318Z,5.33
2022-10-28T20:07:05.760Z,5.90
2022-10-28T20:09:32.235Z,5.80
2022-10-28T20:11:58.723Z,5.53
2022-10-28T20:14:25.245Z,5.90
2022-10-28T20:16:51.767Z,5.53
2022-10-28T20:19:18.226Z,5.97
2022-10-28T20:21:45.170Z,5.77
2022-10-28T20:24:11.565Z,5.73
2022-10-28T20:26:38.485Z,5.83
2022-10-28T20:29:06.986Z,6.23
2022-10-28T20:31:33.970Z,6.10
2022-10-28T20:34:03.873Z,5.87
2022-10-28T20:36:34.411Z,6.40
2022-10-28T20:39:08.832Z,6.33
2022-10-28T20:41:36.886Z,6.73
2022-10-28T20:44:04.950Z,6.70
2022-10-28T20:46:32.305Z,7.17
2022-10-28T20:49:00.778Z,5.60
2022-10-28T20:51:29.370Z,7.07
2022-10-28T20:53:55.902Z,5.80
2022-10-28T20:56:25.735Z,6.47
2022-10-28T20:58:53.407Z,6.30
2022-10-28T21:01:34.589Z,6.30
2022-10-28T21:04:03.364Z,6.80
2022-10-28T21:06:30.765Z,6.40
2022-10-28T21:08:57.527Z,6.63
2022-10-28T21:11:25.204Z,6.00
2022-10-28T21:13:57.957Z,6.90
2022-10-28T21:16:25.031Z,6.63
2022-10-28T21:18:52.125Z,5.70
2022-10-28T21:21:19.658Z,6.07
2022-10-28T21:23:46.301Z,6.27
2022-10-28T21:26:13.267Z,6.73
2022-10-28T21:28:42.727Z,6.77
2022-10-28T21:31:13.993Z,5.90
2022-10-28T21:33:41.482Z,6.83
2022-10-28T21:36:11.472Z,6.83
2022-10-28T21:38:37.903Z,7.37
2022-10-28T21:41:11.293Z,6.83
2022-10-28T21:43:39.934Z,7.20
2022-10-28T21:46:07.175Z,7.17
2022-10-28T21:48:35.169Z,6.67
2022-10-28T21:51:06.310Z,6.63
2022-10-28T21:53:37.345Z,7.13
2022-10-28T21:56:12.457Z,7.30
2022-10-28T21:58:43.303Z,7.20
2022-10-28T22:01:14.909Z,7.07
2022-10-28T22:03:41.714Z,7.67
2022-10-28T22:06:08.780Z,7.90
2022-10-28T22:08:35.552Z,7.33
2022-10-28T22:11:12.693Z,7.17
2022-10-28T22:13:39.268Z,7.23
2022-10-28T22:16:07.921Z,7.20
2022-10-28T22:18:36.319Z,7.40
2022-10-28T22:21:16.340Z,7.60
2022-10-28T22:23:43.055Z,7.33
2022-10-28T22:26:11.996Z,7.63
2022-10-28T22:28:38.996Z,8.23
2022-10-28T22:31:07.870Z,7.53
2022-10-28T22:33:34.692Z,7.90
2022-10-28T22:36:03.494Z,8.10
2022-10-28T22:38:30.080Z,10.73
2022-10-28T22:41:12.008Z,8.53
2022-10-28T22:43:38.880Z,8.20
2022-10-28T22:46:06.159Z,7.73
2022-10-28T22:48:33.273Z,7.37
2022-10-28T22:50:59.902Z,7.43
2022-10-28T22:53:26.771Z,6.83
2022-10-28T22:55:53.781Z,6.73
2022-10-28T22:58:20.939Z,6.17
2022-10-28T23:00:47.491Z,6.77
2022-10-28T23:03:14.453Z,8.00
2022-10-28T23:05:41.397Z,7.57
2022-10-28T23:08:15.683Z,8.20
2022-10-28T23:10:42.252Z,7.50
2022-10-28T23:13:11.726Z,7.73
2022-10-28T23:15:38.177Z,7.57
2022-10-28T23:18:04.618Z,7.90
2022-10-28T23:20:31.068Z,7.23
2022-10-28T23:22:57.551Z,8.00
2022-10-28T23:25:24.028Z,6.60
2022-10-28T23:27:50.711Z,8.47
2022-10-28T23:30:17.294Z,8.27
2022-10-28T23:32:43.983Z,7.77
2022-10-28T23:35:10.406Z,7.93
2022-10-28T23:37:36.867Z,7.73
2022-10-28T23:40:05.066Z,7.53
2022-10-28T23:42:31.627Z,8.20
2022-10-28T23:44:58.077Z,7.90
2022-10-28T23:47:24.584Z,7.90
2022-10-28T23:49:50.999Z,7.70
2022-10-28T23:52:17.511Z,8.50
2022-10-28T23:54:44.086Z,7.83
2022-10-28T23:57:15.886Z,7.83
2022-10-28T23:59:42.381Z,7.47
